Time;durP1;ratioP1;P1;durP2;ratioP2;P2;SDS_P1;SDS_P2;PMS_P1;PMS_P2;Temp;Humidity;BMP_temperature;BMP_pressure;BME280_temperature;BME280_humidity;BME280_pressure;Samples;Min_cycle;Max_cycle;Signal;HPM_P1;HPM_P2
2021/09/30 00:02:09;;;;;;;;;;;8.80;99.90;;;;;;4997406;28;19972;-76
2021/09/30 00:07:17;;;;;;;;;;;8.80;99.90;;;;;;4993107;28;19934;-75
2021/09/30 00:09:47;;;;;;;;;;;8.70;99.90;;;;;;5003843;28;20003;-75
2021/09/30 00:12:24;;;;;;;;;;;8.70;99.90;;;;;;4997501;28;19932;-75
2021/09/30 00:14:54;;;;;;;;;;;8.70;99.90;;;;;;4993990;28;19933;-76
2021/09/30 00:34:35;;;;;;;;;;;8.60;99.90;;;;;;5001724;28;19933;-77
2021/09/30 00:45:40;;;;;;;;;;;8.50;99.90;;;;;;5011312;28;20757;-75
2021/09/30 00:48:38;;;;;;;;;;;8.50;99.90;;;;;;4997942;28;20372;-78
2021/09/30 00:51:12;;;;;;;;;;;8.50;99.90;;;;;;4991787;28;20308;-77
2021/09/30 00:53:55;;;;;;;;;;;8.50;99.90;;;;;;5005914;28;19972;-78
2021/09/30 02:22:14;;;;;;;;;;;8.50;99.90;;;;;;4994835;28;19937;-76
2021/09/30 02:28:08;;;;;;;;;;;8.40;99.90;;;;;;5009055;28;20348;-75
2021/09/30 02:59:24;;;;;;;;;;;8.10;99.90;;;;;;5002917;28;20415;-80
2021/09/30 03:01:57;;;;;;;;;;;8.00;99.90;;;;;;4997282;28;20034;-78
2021/09/30 03:04:24;;;;;;;;;;;8.00;99.90;;;;;;4995201;28;19930;-80
2021/09/30 03:06:51;;;;;;;;;;;8.00;99.90;;;;;;4995483;28;19926;-77
2021/09/30 03:09:21;;;;;;;;;;;7.90;99.90;;;;;;4999757;28;20024;-78
2021/09/30 03:11:51;;;;;;;;;;;7.90;99.90;;;;;;4999836;28;19925;-77
2021/09/30 03:14:19;;;;;;;;;;;7.90;99.90;;;;;;4996576;28;20333;-76
2021/09/30 03:16:49;;;;;;;;;;;7.90;99.90;;;;;;4994848;28;19940;-78
2021/09/30 03:19:31;;;;;;;;;;;7.80;99.90;;;;;;4996299;28;19926;-77
2021/09/30 03:24:59;;;;;;;;;;;7.80;99.90;;;;;;5006804;28;19925;-77
2021/09/30 03:27:29;;;;;;;;;;;7.90;99.90;;;;;;4997218;28;19926;-80
2021/09/30 03:29:56;;;;;;;;;;;7.90;99.90;;;;;;4994376;28;20017;-77
2021/09/30 03:35:09;;;;;;;;;;;7.90;99.90;;;;;;4991694;28;20323;-77
2021/09/30 03:37:38;;;;;;;;;;;7.80;99.90;;;;;;4993989;28;19968;-78
2021/09/30 03:40:11;;;;;;;;;;;7.80;99.90;;;;;;4998246;28;19926;-77
2021/09/30 03:42:38;;;;;;;;;;;7.80;99.90;;;;;;4996547;28;19929;-76
2021/09/30 03:45:30;;;;;;;;;;;7.80;99.90;;;;;;5005812;28;20016;-80
2021/09/30 03:48:01;;;;;;;;;;;7.80;99.90;;;;;;5004359;28;19936;-78
2021/09/30 03:50:32;;;;;;;;;;;7.80;99.90;;;;;;5005721;28;20397;-75
2021/09/30 03:53:14;;;;;;;;;;;7.80;99.90;;;;;;4998173;28;19969;-77
2021/09/30 04:01:09;;;;;;;;;;;7.70;99.90;;;;;;4995472;28;19988;-74
2021/09/30 04:03:37;;;;;;;;;;;7.70;99.90;;;;;;4995899;28;19925;-75
2021/09/30 04:06:06;;;;;;;;;;;7.60;99.90;;;;;;4993635;28;19929;-76
2021/09/30 04:08:37;;;;;;;;;;;7.60;99.90;;;;;;4991582;28;19926;-76
2021/09/30 04:11:04;;;;;;;;;;;7.60;99.90;;;;;;5003178;28;19926;-85
2021/09/30 04:13:50;;;;;;;;;;;7.60;99.90;;;;;;4991661;28;19926;-85
2021/09/30 04:16:32;;;;;;;;;;;7.60;99.90;;;;;;4998876;28;20443;-88
2021/09/30 04:19:12;;;;;;;;;;;7.50;99.90;;;;;;4996793;28;19932;-87
2021/09/30 04:21:41;;;;;;;;;;;7.50;99.90;;;;;;5004671;28;19934;-85
2021/09/30 04:24:11;;;;;;;;;;;7.50;99.90;;;;;;5001498;28;19926;-87
2021/09/30 04:27:04;;;;;;;;;;;7.50;99.90;;;;;;5002830;28;19988;-85
2021/09/30 04:29:31;;;;;;;;;;;7.40;99.90;;;;;;4989175;28;19933;-84
2021/09/30 04:32:07;;;;;;;;;;;7.40;99.90;;;;;;4995338;28;20017;-86
2021/09/30 04:34:47;;;;;;;;;;;7.40;99.90;;;;;;5003688;28;19972;-86
2021/09/30 04:37:17;;;;;;;;;;;7.40;99.90;;;;;;4993828;28;19932;-85
2021/09/30 04:39:50;;;;;;;;;;;7.40;99.90;;;;;;4995847;28;19929;-86
2021/09/30 04:42:17;;;;;;;;;;;7.30;99.90;;;;;;4981804;28;19933;-87
2021/09/30 04:44:44;;;;;;;;;;;7.30;99.90;;;;;;4989787;28;19926;-86
2021/09/30 04:47:11;;;;;;;;;;;7.30;99.90;;;;;;4996779;28;19925;-87
2021/09/30 04:49:44;;;;;;;;;;;7.30;99.90;;;;;;4998973;28;20469;-86
2021/09/30 04:52:15;;;;;;;;;;;7.20;99.90;;;;;;5003242;28;19925;-85
2021/09/30 04:54:57;;;;;;;;;;;7.30;99.90;;;;;;5004099;28;20024;-86
2021/09/30 04:57:27;;;;;;;;;;;7.30;99.90;;;;;;4991583;28;19989;-86
2021/09/30 05:00:06;;;;;;;;;;;7.20;99.90;;;;;;4998605;28;19969;-85
2021/09/30 05:02:33;;;;;;;;;;;7.20;99.90;;;;;;4993260;28;19933;-82
2021/09/30 05:05:03;;;;;;;;;;;7.20;99.90;;;;;;5001507;28;19934;-85
2021/09/30 05:07:31;;;;;;;;;;;7.20;99.90;;;;;;4995353;28;20398;-86
2021/09/30 05:10:01;;;;;;;;;;;7.20;99.90;;;;;;4998381;28;19929;-84
2021/09/30 05:12:29;;;;;;;;;;;7.20;99.90;;;;;;4991438;28;20384;-83
2021/09/30 05:14:56;;;;;;;;;;;7.20;99.90;;;;;;4996303;28;19941;-84
2021/09/30 05:17:26;;;;;;;;;;;7.20;99.90;;;;;;4999063;28;19926;-86
2021/09/30 05:19:56;;;;;;;;;;;7.20;99.90;;;;;;5002112;28;20304;-85
2021/09/30 05:22:41;;;;;;;;;;;7.30;99.90;;;;;;4991862;28;20328;-85
2021/09/30 05:25:10;;;;;;;;;;;7.30;99.90;;;;;;4999043;28;19930;-85
2021/09/30 05:27:37;;;;;;;;;;;7.30;99.90;;;;;;4995607;28;19944;-85
2021/09/30 05:30:08;;;;;;;;;;;7.30;99.90;;;;;;4997143;28;20431;-85
2021/09/30 05:32:35;;;;;;;;;;;7.30;99.90;;;;;;5002316;28;19965;-83
2021/09/30 05:35:02;;;;;;;;;;;7.30;99.90;;;;;;5004234;28;20011;-86
2021/09/30 05:37:29;;;;;;;;;;;7.30;99.90;;;;;;4997845;28;19929;-85
2021/09/30 05:39:56;;;;;;;;;;;7.30;99.90;;;;;;5011883;28;20311;-85
2021/09/30 05:45:17;;;;;;;;;;;7.40;99.90;;;;;;4985007;28;19930;-86
2021/09/30 05:47:45;;;;;;;;;;;7.40;99.90;;;;;;4990837;28;19973;-86
2021/09/30 05:52:54;;;;;;;;;;;7.40;99.90;;;;;;4993314;28;19926;-84
2021/09/30 05:55:22;;;;;;;;;;;7.40;99.90;;;;;;5000534;28;20640;-87
2021/09/30 05:57:53;;;;;;;;;;;7.40;99.90;;;;;;4996239;28;19934;-90
2021/09/30 06:00:28;;;;;;;;;;;7.50;99.90;;;;;;5000475;28;20429;-88
2021/09/30 06:11:42;;;;;;;;;;;7.60;99.90;;;;;;5008094;28;19925;-89
2021/09/30 06:14:32;;;;;;;;;;;7.60;99.90;;;;;;4996919;28;20359;-92
2021/09/30 06:17:01;;;;;;;;;;;7.60;99.90;;;;;;4998151;28;20049;-88
2021/09/30 06:19:31;;;;;;;;;;;7.60;99.90;;;;;;4996521;28;21095;-86
2021/09/30 06:21:59;;;;;;;;;;;7.70;99.90;;;;;;5007846;28;19969;-90
2021/09/30 06:24:29;;;;;;;;;;;7.70;99.90;;;;;;5008874;28;19925;-88
2021/09/30 06:26:55;;;;;;;;;;;7.80;99.90;;;;;;5005269;28;19929;-83
2021/09/30 06:29:45;;;;;;;;;;;7.80;99.90;;;;;;5005912;28;20360;-89
2021/09/30 06:34:55;;;;;;;;;;;8.00;99.90;;;;;;5019184;28;20013;-90
2021/09/30 06:37:25;;;;;;;;;;;8.10;99.90;;;;;;5025144;28;19925;-88
2021/09/30 06:42:57;;;;;;;;;;;8.20;99.90;;;;;;5004951;28;20423;-90
2021/09/30 06:48:12;;;;;;;;;;;8.30;99.90;;;;;;5015235;28;19940;-90
2021/09/30 06:50:42;;;;;;;;;;;8.50;99.90;;;;;;5017297;28;20021;-89
2021/09/30 06:53:20;;;;;;;;;;;8.50;99.90;;;;;;5015001;28;19936;-88
2021/09/30 06:55:52;;;;;;;;;;;8.60;99.90;;;;;;5004188;28;19930;-87
2021/09/30 06:58:28;;;;;;;;;;;8.70;99.90;;;;;;5003565;28;19929;-90
2021/09/30 07:06:43;;;;;;;;;;;9.00;99.90;;;;;;5015291;28;19933;-90
2021/09/30 07:09:10;;;;;;;;;;;9.00;99.90;;;;;;5024889;28;19930;-89
2021/09/30 07:11:37;;;;;;;;;;;9.00;99.90;;;;;;5002093;28;21642;-88
2021/09/30 07:14:04;;;;;;;;;;;9.10;99.90;;;;;;4997931;28;19933;-89
2021/09/30 07:16:31;;;;;;;;;;;9.10;99.90;;;;;;5003355;28;19933;-89
2021/09/30 07:18:58;;;;;;;;;;;9.10;99.90;;;;;;5008321;28;19925;-90
2021/09/30 07:21:31;;;;;;;;;;;9.10;99.90;;;;;;5009451;28;19940;-88
2021/09/30 07:24:02;;;;;;;;;;;9.10;99.90;;;;;;4997959;28;19956;-89
2021/09/30 07:26:34;;;;;;;;;;;9.20;99.90;;;;;;4999416;28;20003;-89
2021/09/30 07:29:03;;;;;;;;;;;9.20;99.90;;;;;;5002427;28;20432;-90
2021/09/30 07:31:33;;;;;;;;;;;9.30;99.90;;;;;;5004178;28;19936;-88
2021/09/30 07:34:00;;;;;;;;;;;9.50;99.90;;;;;;4997166;28;20071;-88
2021/09/30 07:36:36;;;;;;;;;;;9.70;99.90;;;;;;4999416;28;19933;-88
2021/09/30 07:39:04;;;;;;;;;;;10.30;99.90;;;;;;4998125;28;20447;-85
2021/09/30 07:41:36;;;;;;;;;;;11.70;99.90;;;;;;4994997;28;19968;-89
2021/09/30 07:44:04;;;;;;;;;;;12.60;99.90;;;;;;5005669;28;20324;-88
2021/09/30 07:46:31;;;;;;;;;;;13.50;99.90;;;;;;5000065;28;19925;-88
2021/09/30 07:49:01;;;;;;;;;;;13.60;99.90;;;;;;5002786;28;19933;-86
2021/09/30 07:54:45;;;;;;;;;;;13.80;99.90;;;;;;4990272;28;19929;-87
2021/09/30 07:57:22;;;;;;;;;;;12.90;99.90;;;;;;5010113;28;19965;-90
2021/09/30 07:59:53;;;;;;;;;;;12.20;99.90;;;;;;5000036;28;19983;-90
2021/09/30 08:02:28;;;;;;;;;;;11.90;99.90;;;;;;5005619;28;20025;-90
2021/09/30 08:04:55;;;;;;;;;;;11.80;99.90;;;;;;4998031;28;20667;-89
2021/09/30 08:07:24;;;;;;;;;;;11.80;99.90;;;;;;4998430;28;20026;-88
2021/09/30 08:09:51;;;;;;;;;;;11.70;99.90;;;;;;4998953;28;20463;-82
2021/09/30 08:12:33;;;;;;;;;;;11.60;99.90;;;;;;4998671;28;20355;-89
2021/09/30 08:15:04;;;;;;;;;;;11.50;99.90;;;;;;4992558;28;20024;-89
2021/09/30 08:20:12;;;;;;;;;;;11.30;99.90;;;;;;5003477;28;19929;-89
2021/09/30 08:22:42;;;;;;;;;;;11.40;99.90;;;;;;5009221;28;19937;-88
2021/09/30 08:25:09;;;;;;;;;;;11.40;99.90;;;;;;4998472;28;19933;-89
2021/09/30 08:27:36;;;;;;;;;;;11.40;99.90;;;;;;4997894;28;19925;-88
2021/09/30 08:30:05;;;;;;;;;;;11.50;99.90;;;;;;4999404;28;20016;-88
2021/09/30 08:32:32;;;;;;;;;;;11.40;99.90;;;;;;4994881;28;19929;-89
2021/09/30 08:35:02;;;;;;;;;;;11.40;99.90;;;;;;5002380;28;20029;-89
2021/09/30 08:37:32;;;;;;;;;;;11.50;99.90;;;;;;4993315;28;19925;-88
2021/09/30 08:40:01;;;;;;;;;;;11.50;99.90;;;;;;4999070;28;19926;-89
2021/09/30 08:42:31;;;;;;;;;;;11.70;99.90;;;;;;5002066;28;19933;-88
2021/09/30 08:44:58;;;;;;;;;;;11.80;99.90;;;;;;4998314;28;19941;-88
2021/09/30 08:47:29;;;;;;;;;;;11.90;99.90;;;;;;4991361;28;20032;-83
2021/09/30 08:50:06;;;;;;;;;;;11.90;99.90;;;;;;4992652;28;20447;-89
2021/09/30 08:52:57;;;;;;;;;;;12.00;99.90;;;;;;4990621;28;19933;-90
2021/09/30 08:55:33;;;;;;;;;;;12.10;99.90;;;;;;4991300;28;20027;-90
2021/09/30 09:00:42;;;;;;;;;;;12.70;99.90;;;;;;5000070;28;19937;-89
2021/09/30 09:03:30;;;;;;;;;;;12.80;99.90;;;;;;4988087;28;20400;-93
2021/09/30 09:06:05;;;;;;;;;;;13.10;99.90;;;;;;4999514;28;19926;-90
2021/09/30 09:08:33;;;;;;;;;;;13.10;99.90;;;;;;4996598;28;19933;-90
2021/09/30 09:11:13;;;;;;;;;;;13.20;99.90;;;;;;4990560;28;20022;-91
2021/09/30 09:13:47;;;;;;;;;;;13.40;99.90;;;;;;4995895;28;19933;-89
2021/09/30 09:16:20;;;;;;;;;;;13.60;99.90;;;;;;4997086;28;19929;-90
2021/09/30 09:18:53;;;;;;;;;;;13.60;99.90;;;;;;4993178;28;19934;-89
2021/09/30 09:21:23;;;;;;;;;;;13.50;99.90;;;;;;4995298;28;19937;-88
2021/09/30 09:23:55;;;;;;;;;;;13.60;99.90;;;;;;5001481;28;19929;-91
2021/09/30 09:26:26;;;;;;;;;;;13.60;99.90;;;;;;4996160;28;20028;-90
2021/09/30 09:29:03;;;;;;;;;;;13.60;99.90;;;;;;4992312;28;20507;-87
2021/09/30 09:31:34;;;;;;;;;;;13.50;99.90;;;;;;4996652;28;19930;-88
2021/09/30 09:36:56;;;;;;;;;;;13.60;99.90;;;;;;5095303;27;19932;-80
2021/09/30 09:39:32;;;;;;;;;;;13.60;99.90;;;;;;5089482;28;19924;-81
2021/09/30 09:42:05;;;;;;;;;;;13.60;99.90;;;;;;5087508;28;20029;-82
2021/09/30 09:44:32;;;;;;;;;;;13.40;99.90;;;;;;5094244;28;19924;-81
2021/09/30 09:46:59;;;;;;;;;;;13.40;99.90;;;;;;5095456;28;20015;-79
2021/09/30 09:49:25;;;;;;;;;;;13.40;99.90;;;;;;5090885;28;19924;-80
2021/09/30 09:51:52;;;;;;;;;;;13.50;99.90;;;;;;5093704;28;19924;-79
2021/09/30 09:54:21;;;;;;;;;;;13.60;99.90;;;;;;5088126;28;19968;-79
2021/09/30 09:56:48;;;;;;;;;;;13.70;99.90;;;;;;5087071;28;20074;-79
2021/09/30 09:59:27;;;;;;;;;;;13.50;99.90;;;;;;5086161;28;20053;-80
2021/09/30 10:01:54;;;;;;;;;;;13.40;99.90;;;;;;5089773;28;20441;-79
2021/09/30 10:04:21;;;;;;;;;;;13.30;99.90;;;;;;5087538;28;20362;-79
2021/09/30 10:06:48;;;;;;;;;;;13.20;99.90;;;;;;5093518;28;19924;-79
2021/09/30 10:09:16;;;;;;;;;;;13.30;99.90;;;;;;5091936;28;19932;-79
2021/09/30 10:11:44;;;;;;;;;;;13.30;99.90;;;;;;5093133;28;20133;-79
2021/09/30 10:14:12;;;;;;;;;;;13.30;99.90;;;;;;5089558;28;19924;-79
2021/09/30 10:16:39;;;;;;;;;;;13.30;99.90;;;;;;5090733;28;19931;-79
2021/09/30 10:19:07;;;;;;;;;;;13.40;99.90;;;;;;5090964;28;20031;-80
2021/09/30 10:21:34;;;;;;;;;;;13.40;99.90;;;;;;5086770;28;19979;-80
2021/09/30 10:24:02;;;;;;;;;;;13.30;99.90;;;;;;5089943;28;20320;-83
2021/09/30 10:26:33;;;;;;;;;;;13.40;99.90;;;;;;5095162;28;19928;-82
2021/09/30 10:29:02;;;;;;;;;;;13.30;99.90;;;;;;5100278;28;19931;-81
2021/09/30 10:31:30;;;;;;;;;;;13.30;99.90;;;;;;5092285;28;19935;-83
2021/09/30 10:33:58;;;;;;;;;;;13.30;99.90;;;;;;5095540;28;19932;-84
2021/09/30 10:36:29;;;;;;;;;;;13.40;99.90;;;;;;5111131;27;19932;-81
2021/09/30 10:39:11;;;;;;;;;;;13.50;99.90;;;;;;5107488;28;20359;-79
2021/09/30 10:41:38;;;;;;;;;;;13.60;99.90;;;;;;5116320;27;19934;-82
2021/09/30 10:44:14;;;;;;;;;;;13.50;99.90;;;;;;5106822;27;19928;-82
2021/09/30 10:46:57;;;;;;;;;;;13.50;99.90;;;;;;5103516;27;19934;-82
2021/09/30 10:49:35;;;;;;;;;;;13.60;99.90;;;;;;5088944;27;19932;-81
2021/09/30 10:52:21;;;;;;;;;;;13.70;99.90;;;;;;5096978;28;19932;-83
2021/09/30 10:54:48;;;;;;;;;;;13.80;99.90;;;;;;5096565;28;19924;-83
2021/09/30 10:57:35;;;;;;;;;;;13.80;99.90;;;;;;5097152;28;19974;-83
2021/09/30 11:00:04;;;;;;;;;;;13.80;99.90;;;;;;5106910;28;20022;-78
2021/09/30 11:02:30;;;;;;;;;;;13.90;99.90;;;;;;5097739;28;19923;-83
2021/09/30 11:05:08;;;;;;;;;;;13.90;99.90;;;;;;5095484;28;20034;-84
2021/09/30 11:07:37;;;;;;;;;;;14.10;99.90;;;;;;5094570;28;19924;-81
2021/09/30 11:10:14;;;;;;;;;;;14.10;99.90;;;;;;5101286;27;20390;-82
2021/09/30 11:12:40;;;;;;;;;;;14.00;99.90;;;;;;5098606;28;19932;-83
2021/09/30 11:15:09;;;;;;;;;;;14.00;99.90;;;;;;5099403;28;20390;-83
2021/09/30 11:17:36;;;;;;;;;;;13.90;99.90;;;;;;5094337;28;19931;-83
2021/09/30 11:20:21;;;;;;;;;;;13.80;99.90;;;;;;5102503;28;19924;-80
2021/09/30 11:22:48;;;;;;;;;;;13.80;99.90;;;;;;5099855;28;20031;-79
2021/09/30 11:25:15;;;;;;;;;;;13.90;99.90;;;;;;5098896;28;20381;-80
2021/09/30 11:27:41;;;;;;;;;;;13.90;99.90;;;;;;5097406;28;19924;-82
2021/09/30 11:30:17;;;;;;;;;;;14.00;99.90;;;;;;5100815;27;21214;-81
2021/09/30 11:32:44;;;;;;;;;;;13.90;99.90;;;;;;5091103;28;20314;-81
2021/09/30 11:35:11;;;;;;;;;;;14.00;99.90;;;;;;5091506;28;20007;-81
2021/09/30 11:37:42;;;;;;;;;;;14.10;99.90;;;;;;5093416;28;20022;-81
2021/09/30 11:40:15;;;;;;;;;;;14.10;99.90;;;;;;5096677;28;19928;-81
2021/09/30 11:42:43;;;;;;;;;;;14.20;99.90;;;;;;5094321;28;19932;-82
2021/09/30 11:45:11;;;;;;;;;;;14.50;99.90;;;;;;5095807;28;19955;-84
2021/09/30 11:47:40;;;;;;;;;;;14.50;99.90;;;;;;5095209;27;19925;-83
2021/09/30 11:50:08;;;;;;;;;;;14.50;99.90;;;;;;5094210;28;19928;-81
2021/09/30 11:52:35;;;;;;;;;;;14.70;99.90;;;;;;5093317;28;19934;-83
2021/09/30 11:55:09;;;;;;;;;;;14.60;99.90;;;;;;5099535;27;19930;-83
2021/09/30 11:57:36;;;;;;;;;;;14.70;99.90;;;;;;5095192;28;19930;-84
2021/09/30 12:00:10;;;;;;;;;;;14.70;99.90;;;;;;5092789;28;19924;-81
2021/09/30 12:02:36;;;;;;;;;;;14.80;99.90;;;;;;5095130;28;20012;-84
2021/09/30 12:05:05;;;;;;;;;;;15.00;99.90;;;;;;5094936;28;19932;-83
2021/09/30 12:07:32;;;;;;;;;;;15.20;99.90;;;;;;5096069;27;20018;-79
2021/09/30 12:10:00;;;;;;;;;;;15.20;99.90;;;;;;5092157;27;19924;-80
2021/09/30 12:12:27;;;;;;;;;;;15.00;99.90;;;;;;5099717;28;19927;-80
2021/09/30 12:14:55;;;;;;;;;;;15.00;99.90;;;;;;5098510;28;19939;-81
2021/09/30 12:17:22;;;;;;;;;;;15.00;99.90;;;;;;5098857;28;19924;-81
2021/09/30 12:19:49;;;;;;;;;;;14.90;99.90;;;;;;5098270;28;19928;-82
2021/09/30 12:22:19;;;;;;;;;;;14.80;99.90;;;;;;5101115;28;19928;-80
2021/09/30 12:24:46;;;;;;;;;;;14.80;99.90;;;;;;5093870;28;19930;-81
2021/09/30 12:27:13;;;;;;;;;;;14.90;99.90;;;;;;5099759;28;19946;-82
2021/09/30 12:29:41;;;;;;;;;;;15.00;99.90;;;;;;5099668;27;19931;-82
2021/09/30 12:32:09;;;;;;;;;;;15.00;99.90;;;;;;5100578;27;20247;-82
2021/09/30 12:34:36;;;;;;;;;;;14.90;99.90;;;;;;5093365;27;20298;-82
2021/09/30 12:37:02;;;;;;;;;;;14.90;99.90;;;;;;5100955;28;20251;-82
2021/09/30 12:39:31;;;;;;;;;;;15.20;99.90;;;;;;5097987;28;19924;-82
2021/09/30 12:42:10;;;;;;;;;;;15.40;99.90;;;;;;5097075;28;19924;-82
2021/09/30 12:44:41;;;;;;;;;;;15.40;99.90;;;;;;5100670;27;19930;-81
2021/09/30 12:47:08;;;;;;;;;;;15.30;99.90;;;;;;5098167;28;19932;-81
2021/09/30 12:49:35;;;;;;;;;;;15.40;99.90;;;;;;5100004;28;19928;-82
2021/09/30 12:52:16;;;;;;;;;;;15.50;99.90;;;;;;5098336;28;19967;-83
2021/09/30 12:54:46;;;;;;;;;;;15.60;99.90;;;;;;5101309;28;19932;-81
2021/09/30 12:57:13;;;;;;;;;;;15.70;99.90;;;;;;5097095;28;19949;-81
2021/09/30 12:59:55;;;;;;;;;;;15.80;99.90;;;;;;5103047;28;20027;-81
2021/09/30 13:02:22;;;;;;;;;;;16.00;99.90;;;;;;5094223;28;20495;-81
2021/09/30 13:04:52;;;;;;;;;;;15.80;99.60;;;;;;5093430;28;20599;-81
2021/09/30 13:07:19;;;;;;;;;;;15.60;99.90;;;;;;5095366;28;20010;-81
2021/09/30 13:09:47;;;;;;;;;;;15.70;99.90;;;;;;5097356;28;19928;-82
2021/09/30 13:12:15;;;;;;;;;;;15.70;99.90;;;;;;5092027;28;19932;-81
2021/09/30 13:14:45;;;;;;;;;;;15.80;99.90;;;;;;5092513;28;19932;-81
2021/09/30 13:17:13;;;;;;;;;;;16.00;99.90;;;;;;5098306;28;19924;-80
2021/09/30 13:19:42;;;;;;;;;;;16.10;99.90;;;;;;5097422;28;19944;-79
2021/09/30 13:22:09;;;;;;;;;;;16.10;99.30;;;;;;5097308;27;20416;-80
2021/09/30 13:24:37;;;;;;;;;;;15.90;99.00;;;;;;5095860;28;19928;-80
2021/09/30 13:27:06;;;;;;;;;;;15.80;99.70;;;;;;5104019;28;19946;-81
2021/09/30 13:29:33;;;;;;;;;;;15.70;99.30;;;;;;5092590;28;20553;-81
2021/09/30 13:32:00;;;;;;;;;;;15.70;99.40;;;;;;5097615;28;19924;-81
2021/09/30 13:34:27;;;;;;;;;;;15.80;99.30;;;;;;5088812;28;19923;-78
2021/09/30 13:36:53;;;;;;;;;;;15.80;99.20;;;;;;5094782;28;19924;-83
2021/09/30 13:39:20;;;;;;;;;;;15.60;99.40;;;;;;5092387;28;19996;-82
2021/09/30 13:41:47;;;;;;;;;;;15.70;99.80;;;;;;5096968;28;19931;-82
2021/09/30 13:44:15;;;;;;;;;;;15.90;99.70;;;;;;5101588;28;19930;-80
2021/09/30 13:46:41;;;;;;;;;;;15.80;99.00;;;;;;5089324;28;20393;-82
2021/09/30 13:49:08;;;;;;;;;;;15.70;99.00;;;;;;5095748;28;19938;-80
2021/09/30 13:51:35;;;;;;;;;;;15.70;98.80;;;;;;5095198;28;19971;-79
2021/09/30 13:54:01;;;;;;;;;;;15.70;98.30;;;;;;5093737;28;19924;-82
2021/09/30 13:56:29;;;;;;;;;;;15.60;98.50;;;;;;5098888;28;19934;-83
2021/09/30 13:58:56;;;;;;;;;;;15.60;98.20;;;;;;5091566;28;19932;-82
2021/09/30 14:01:24;;;;;;;;;;;15.60;98.30;;;;;;5093967;28;19930;-80
2021/09/30 14:03:51;;;;;;;;;;;15.60;98.10;;;;;;5090420;28;19928;-79
2021/09/30 14:06:18;;;;;;;;;;;15.60;98.00;;;;;;5091251;28;20389;-79
2021/09/30 14:08:44;;;;;;;;;;;15.70;97.70;;;;;;5098040;28;20006;-78
2021/09/30 14:11:13;;;;;;;;;;;15.80;97.60;;;;;;5093386;28;20472;-83
2021/09/30 14:13:39;;;;;;;;;;;15.80;97.70;;;;;;5099411;28;19927;-79
2021/09/30 14:16:06;;;;;;;;;;;15.70;97.30;;;;;;5098838;28;20473;-78
2021/09/30 14:18:34;;;;;;;;;;;15.60;96.60;;;;;;5096072;28;19928;-78
2021/09/30 14:21:01;;;;;;;;;;;15.50;96.90;;;;;;5090123;28;19934;-80
2021/09/30 14:23:28;;;;;;;;;;;15.50;96.60;;;;;;5094206;27;20066;-80
2021/09/30 14:25:54;;;;;;;;;;;15.40;96.40;;;;;;5097075;28;19924;-80
2021/09/30 14:28:21;;;;;;;;;;;15.40;96.30;;;;;;5102560;28;19930;-81
2021/09/30 14:30:48;;;;;;;;;;;15.40;96.20;;;;;;5101224;28;19963;-81
2021/09/30 14:33:15;;;;;;;;;;;15.40;96.40;;;;;;5103894;28;20346;-82
2021/09/30 14:35:43;;;;;;;;;;;15.50;96.80;;;;;;5103373;28;19924;-83
2021/09/30 14:38:09;;;;;;;;;;;15.60;96.80;;;;;;5101392;28;19924;-83
2021/09/30 14:40:36;;;;;;;;;;;15.60;96.90;;;;;;5094603;28;20017;-82
2021/09/30 14:43:03;;;;;;;;;;;15.60;96.90;;;;;;5098744;28;19925;-79
2021/09/30 14:45:29;;;;;;;;;;;15.60;96.40;;;;;;5101678;28;19950;-79
2021/09/30 14:47:56;;;;;;;;;;;15.50;96.50;;;;;;5094105;27;20515;-80
2021/09/30 14:50:23;;;;;;;;;;;15.30;96.30;;;;;;5099935;28;20592;-80
2021/09/30 14:52:51;;;;;;;;;;;15.30;96.60;;;;;;5100558;28;19958;-80
2021/09/30 14:55:18;;;;;;;;;;;15.30;96.60;;;;;;5097068;28;19955;-79
2021/09/30 14:57:45;;;;;;;;;;;15.40;96.90;;;;;;5098324;28;19930;-78
2021/09/30 15:00:14;;;;;;;;;;;15.40;96.80;;;;;;5083802;28;20328;-78
2021/09/30 15:02:41;;;;;;;;;;;15.30;96.40;;;;;;5094553;27;19946;-79
2021/09/30 15:05:08;;;;;;;;;;;15.30;96.60;;;;;;5102603;28;20286;-79
2021/09/30 15:07:46;;;;;;;;;;;15.30;96.70;;;;;;5096333;28;20328;-80
2021/09/30 15:10:14;;;;;;;;;;;15.30;96.50;;;;;;5098933;28;19930;-79
2021/09/30 15:12:41;;;;;;;;;;;15.20;96.30;;;;;;5092399;28;19923;-79
2021/09/30 15:15:09;;;;;;;;;;;15.20;96.80;;;;;;5097006;28;20393;-79
2021/09/30 15:17:46;;;;;;;;;;;15.20;97.00;;;;;;5099949;28;20030;-79
2021/09/30 15:21:20;;;;;;;;;;;15.20;97.30;;;;;;5099279;28;19927;-79
2021/09/30 15:23:01;;;;;;;;;;;15.10;97.50;;;;;;5092261;27;19953;-78
2021/09/30 15:25:29;;;;;;;;;;;15.00;97.30;;;;;;5096844;27;20026;-74
2021/09/30 15:27:57;;;;;;;;;;;15.10;97.50;;;;;;5106731;28;20262;-79
2021/09/30 15:30:24;;;;;;;;;;;15.00;97.20;;;;;;5099838;28;19924;-79
2021/09/30 15:32:50;;;;;;;;;;;15.10;97.10;;;;;;5097023;28;19924;-78
2021/09/30 15:35:17;;;;;;;;;;;15.20;96.70;;;;;;5099716;28;19931;-79
2021/09/30 15:37:44;;;;;;;;;;;15.20;96.70;;;;;;5097352;28;20030;-79
2021/09/30 15:40:11;;;;;;;;;;;15.10;96.80;;;;;;5099330;28;19924;-80
2021/09/30 15:42:39;;;;;;;;;;;15.00;97.00;;;;;;5099980;27;19924;-79
2021/09/30 15:45:06;;;;;;;;;;;15.00;96.90;;;;;;5105524;28;19924;-81
2021/09/30 15:47:32;;;;;;;;;;;14.90;97.30;;;;;;5096629;28;19967;-80
2021/09/30 15:49:59;;;;;;;;;;;15.00;97.30;;;;;;5102911;28;19930;-82
2021/09/30 15:52:26;;;;;;;;;;;15.00;97.30;;;;;;5071074;28;19937;-81
2021/09/30 15:54:53;;;;;;;;;;;15.00;97.10;;;;;;5076735;28;19928;-81
2021/09/30 15:57:19;;;;;;;;;;;14.90;97.50;;;;;;5094705;28;20461;-81
2021/09/30 15:59:47;;;;;;;;;;;14.90;97.90;;;;;;5097514;28;19923;-81
2021/09/30 16:02:14;;;;;;;;;;;14.80;97.70;;;;;;5098649;27;19931;-81
2021/09/30 16:04:40;;;;;;;;;;;14.80;97.90;;;;;;5095081;28;20006;-78
2021/09/30 16:07:08;;;;;;;;;;;14.70;98.20;;;;;;5098179;27;20327;-79
2021/09/30 16:09:35;;;;;;;;;;;14.60;98.20;;;;;;5100410;28;19950;-79
2021/09/30 16:12:02;;;;;;;;;;;14.60;98.40;;;;;;5092778;28;19930;-80
2021/09/30 16:14:29;;;;;;;;;;;14.60;98.50;;;;;;5092136;28;20245;-79
2021/09/30 16:16:57;;;;;;;;;;;14.60;98.50;;;;;;5096951;28;20401;-79
2021/09/30 16:19:26;;;;;;;;;;;14.60;98.40;;;;;;5094278;27;19938;-79
2021/09/30 16:21:53;;;;;;;;;;;14.50;98.40;;;;;;5100383;27;19923;-80
2021/09/30 16:24:20;;;;;;;;;;;14.50;98.30;;;;;;5098436;28;20469;-79
2021/09/30 16:26:48;;;;;;;;;;;14.50;98.50;;;;;;5099654;28;19989;-78
2021/09/30 16:29:15;;;;;;;;;;;14.40;98.30;;;;;;5097292;28;19932;-79
2021/09/30 16:31:41;;;;;;;;;;;14.40;98.60;;;;;;5091086;27;19931;-79
2021/09/30 16:34:10;;;;;;;;;;;14.40;98.40;;;;;;5095967;27;19930;-79
2021/09/30 16:36:36;;;;;;;;;;;14.50;99.10;;;;;;5095954;28;19935;-79
2021/09/30 16:39:03;;;;;;;;;;;14.40;99.90;;;;;;5092387;27;19954;-79
2021/09/30 16:41:30;;;;;;;;;;;14.40;99.90;;;;;;5095231;28;19934;-79
2021/09/30 16:43:57;;;;;;;;;;;14.30;99.90;;;;;;5099642;28;19924;-79
2021/09/30 16:46:23;;;;;;;;;;;14.20;99.90;;;;;;5100991;28;19942;-79
2021/09/30 16:48:51;;;;;;;;;;;14.10;99.90;;;;;;5094445;28;19927;-79
2021/09/30 16:51:20;;;;;;;;;;;14.10;99.90;;;;;;5096014;28;19930;-79
2021/09/30 16:53:47;;;;;;;;;;;14.10;99.90;;;;;;5101341;28;19924;-79
2021/09/30 16:56:15;;;;;;;;;;;14.00;99.90;;;;;;5096887;28;19924;-79
2021/09/30 16:58:41;;;;;;;;;;;14.00;99.90;;;;;;5096780;28;20555;-79
2021/09/30 17:01:08;;;;;;;;;;;14.00;99.90;;;;;;5096512;28;19931;-79
2021/09/30 17:03:35;;;;;;;;;;;14.00;99.90;;;;;;5089270;28;20046;-79
2021/09/30 17:06:02;;;;;;;;;;;14.00;99.90;;;;;;5095195;28;19958;-79
2021/09/30 17:08:30;;;;;;;;;;;13.90;99.90;;;;;;5089937;28;19924;-79
2021/09/30 17:10:58;;;;;;;;;;;13.90;99.90;;;;;;5101507;28;20000;-81
2021/09/30 17:13:25;;;;;;;;;;;13.90;99.90;;;;;;5099088;28;19931;-79
2021/09/30 17:15:55;;;;;;;;;;;13.80;99.90;;;;;;5085484;28;19932;-80
2021/09/30 17:18:23;;;;;;;;;;;13.80;99.90;;;;;;5095541;28;19989;-79
2021/09/30 17:20:50;;;;;;;;;;;13.80;99.90;;;;;;5089682;28;19935;-80
2021/09/30 17:23:16;;;;;;;;;;;13.80;99.90;;;;;;5097452;28;19930;-79
2021/09/30 17:25:47;;;;;;;;;;;13.80;99.90;;;;;;5100085;28;19928;-79
2021/09/30 17:28:14;;;;;;;;;;;13.70;99.90;;;;;;5096972;28;19924;-79
2021/09/30 17:30:40;;;;;;;;;;;13.80;99.90;;;;;;5102505;28;19928;-79
2021/09/30 17:33:07;;;;;;;;;;;13.80;99.90;;;;;;5091932;28;19940;-80
2021/09/30 17:35:34;;;;;;;;;;;13.70;99.90;;;;;;5095569;28;20218;-80
2021/09/30 17:38:01;;;;;;;;;;;13.70;99.90;;;;;;5089457;28;20436;-80
2021/09/30 17:40:27;;;;;;;;;;;13.70;99.90;;;;;;5095522;28;20246;-80
2021/09/30 17:42:55;;;;;;;;;;;13.70;99.90;;;;;;5096137;28;19930;-80
2021/09/30 17:45:22;;;;;;;;;;;13.60;99.90;;;;;;5092509;28;19947;-79
2021/09/30 17:47:49;;;;;;;;;;;13.50;99.90;;;;;;5102580;28;20283;-79
2021/09/30 17:50:16;;;;;;;;;;;13.50;99.90;;;;;;5094475;28;19974;-79
2021/09/30 17:52:42;;;;;;;;;;;13.50;99.90;;;;;;5104229;28;19928;-79
2021/09/30 17:55:11;;;;;;;;;;;13.50;99.90;;;;;;5096443;28;20370;-79